To NAV CANADA Home Page Login to a new session Search on AWWS site Disclaimer Vers la page française équivalente Tips FAQ What's new on the site To the Forecasts and Observations / NOTAM section To "File a Flight Plan" website Publications and other links Update of the User's profile FIC Telephone Numbers My Weather Data Folder Route Weather Data Regional Weather Data Local Weather Data To the Forecasts and Observations / NOTAM section
Request Generated 11/16/2018 at 02:07:18 UTC . Weather information available at that time is displayed.

METAR/TAF

WILLIAMS LAKE/BC    

METAR CYWL 160200Z 28014G20KT 15SM FEW050 OVC080 02/00 A2998 RMK SC2AC6 SLP187=
SPECI CYWL 160156Z 28013KT 15SM FEW045 OVC075 02/00 A2997 RMK SC2AC6 SLP185=
SPECI CYWL 160151Z 28012G18KT 15SM -SHSN BKN045 OVC080 02/01 A2997 RMK SC5AC3 SLP185=
SPECI CYWL 160124Z 32013G24KT 2SM -SHSN VV010 01/00 A2997 RMK SN8 PRESRR SLP186=
METAR CYWL 160100Z 00000KT 15SM FEW060 SCT100 BKN160 01/01 A2991 RMK SC1AC2AC3 SLP163=
METAR CYWL 160000Z 18003KT 100V230 15SM FEW030 BKN065 BKN100 02/01 A2989 RMK CU2SC3AC2 SLP155=

TAF AMD CYWL 160132Z 1601/1613 32012G22KT 6SM -SN OVC030 TEMPO
1601/1603 1SM -SHSN VV009
FM160300 30010KT P6SM BKN030 TEMPO 1603/1609 BKN020
FM160900 30010KT P6SM SCT005 PROB30 1609/1613 BKN005
RMK NXT FCST BY 160700Z=
Your time UTC time
Weather data provided by Environment Canada and NAV CANADA